sensor_id;sensor_type;location;lat;lon;timestamp;temperature;humidity
10702;DHT22;5402;50.004;8.246;2024-01-27T00:00:50;6.00;99.90
10702;DHT22;5402;50.004;8.246;2024-01-27T00:03:17;6.00;99.90
10702;DHT22;5402;50.004;8.246;2024-01-27T00:05:44;6.10;99.90
10702;DHT22;5402;50.004;8.246;2024-01-27T00:08:11;6.10;99.90
10702;DHT22;5402;50.004;8.246;2024-01-27T00:10:37;6.00;99.90
10702;DHT22;5402;50.004;8.246;2024-01-27T00:13:05;6.00;99.90
10702;DHT22;5402;50.004;8.246;2024-01-27T00:15:32;5.90;99.90
10702;DHT22;5402;50.004;8.246;2024-01-27T00:17:59;5.90;99.90
10702;DHT22;5402;50.004;8.246;2024-01-27T00:20:25;5.80;99.90
10702;DHT22;5402;50.004;8.246;2024-01-27T00:22:52;5.70;99.90
10702;DHT22;5402;50.004;8.246;2024-01-27T00:25:19;5.70;99.90
10702;DHT22;5402;50.004;8.246;2024-01-27T00:27:45;5.60;99.90
10702;DHT22;5402;50.004;8.246;2024-01-27T00:30:14;5.50;99.90
10702;DHT22;5402;50.004;8.246;2024-01-27T00:32:40;5.30;99.90
10702;DHT22;5402;50.004;8.246;2024-01-27T00:35:07;5.10;99.90
10702;DHT22;5402;50.004;8.246;2024-01-27T00:37:34;5.10;99.90
10702;DHT22;5402;50.004;8.246;2024-01-27T00:40:01;5.00;99.90
10702;DHT22;5402;50.004;8.246;2024-01-27T00:42:28;4.90;99.90
10702;DHT22;5402;50.004;8.246;2024-01-27T00:44:55;4.80;99.90
10702;DHT22;5402;50.004;8.246;2024-01-27T00:47:23;4.70;99.90
10702;DHT22;5402;50.004;8.246;2024-01-27T00:49:50;4.50;99.90
10702;DHT22;5402;50.004;8.246;2024-01-27T00:52:16;4.50;99.90
10702;DHT22;5402;50.004;8.246;2024-01-27T00:54:43;4.50;99.90
10702;DHT22;5402;50.004;8.246;2024-01-27T00:57:10;4.40;99.90
10702;DHT22;5402;50.004;8.246;2024-01-27T00:59:36;4.30;99.90
10702;DHT22;5402;50.004;8.246;2024-01-27T01:02:04;4.20;99.90
10702;DHT22;5402;50.004;8.246;2024-01-27T01:04:32;4.10;99.90
10702;DHT22;5402;50.004;8.246;2024-01-27T01:06:59;3.90;99.90
10702;DHT22;5402;50.004;8.246;2024-01-27T01:09:26;3.90;99.90
10702;DHT22;5402;50.004;8.246;2024-01-27T01:11:52;3.80;99.90
10702;DHT22;5402;50.004;8.246;2024-01-27T01:14:19;3.70;99.90
10702;DHT22;5402;50.004;8.246;2024-01-27T01:16:46;3.70;99.90
10702;DHT22;5402;50.004;8.246;2024-01-27T01:19:12;3.70;99.90
10702;DHT22;5402;50.004;8.246;2024-01-27T01:21:40;3.70;99.90
10702;DHT22;5402;50.004;8.246;2024-01-27T01:24:07;3.70;99.90
10702;DHT22;5402;50.004;8.246;2024-01-27T01:26:34;3.60;99.90
10702;DHT22;5402;50.004;8.246;2024-01-27T01:29:00;3.70;99.90
10702;DHT22;5402;50.004;8.246;2024-01-27T01:31:27;3.60;99.90
10702;DHT22;5402;50.004;8.246;2024-01-27T01:33:54;3.60;99.90
10702;DHT22;5402;50.004;8.246;2024-01-27T01:36:20;3.60;99.90
10702;DHT22;5402;50.004;8.246;2024-01-27T01:38:48;3.50;99.90
10702;DHT22;5402;50.004;8.246;2024-01-27T01:41:15;3.50;99.90
10702;DHT22;5402;50.004;8.246;2024-01-27T01:43:42;3.40;99.90
10702;DHT22;5402;50.004;8.246;2024-01-27T01:46:08;3.40;99.90
10702;DHT22;5402;50.004;8.246;2024-01-27T01:48:35;3.40;99.90
10702;DHT22;5402;50.004;8.246;2024-01-27T01:51:02;3.40;99.90
10702;DHT22;5402;50.004;8.246;2024-01-27T01:53:29;3.50;99.90
10702;DHT22;5402;50.004;8.246;2024-01-27T01:55:58;3.50;99.90
10702;DHT22;5402;50.004;8.246;2024-01-27T01:58:24;3.40;99.90
10702;DHT22;5402;50.004;8.246;2024-01-27T02:00:51;3.40;99.90
10702;DHT22;5402;50.004;8.246;2024-01-27T02:03:18;3.40;99.90
10702;DHT22;5402;50.004;8.246;2024-01-27T02:05:44;3.40;99.90
10702;DHT22;5402;50.004;8.246;2024-01-27T02:08:11;3.30;99.90
10702;DHT22;5402;50.004;8.246;2024-01-27T02:10:38;3.30;99.90
10702;DHT22;5402;50.004;8.246;2024-01-27T02:13:16;3.20;99.90
10702;DHT22;5402;50.004;8.246;2024-01-27T02:15:43;3.20;99.90
10702;DHT22;5402;50.004;8.246;2024-01-27T02:18:10;3.10;99.90
10702;DHT22;5402;50.004;8.246;2024-01-27T02:20:37;3.00;99.90
10702;DHT22;5402;50.004;8.246;2024-01-27T02:23:04;3.00;99.90
10702;DHT22;5402;50.004;8.246;2024-01-27T02:25:33;3.00;99.90
10702;DHT22;5402;50.004;8.246;2024-01-27T02:28:00;2.80;99.90
10702;DHT22;5402;50.004;8.246;2024-01-27T02:30:28;2.80;99.90
10702;DHT22;5402;50.004;8.246;2024-01-27T02:32:55;2.70;99.90
10702;DHT22;5402;50.004;8.246;2024-01-27T02:35:22;2.70;99.90
10702;DHT22;5402;50.004;8.246;2024-01-27T02:37:49;2.70;99.90
10702;DHT22;5402;50.004;8.246;2024-01-27T02:40:16;2.70;99.90
10702;DHT22;5402;50.004;8.246;2024-01-27T02:42:44;2.60;99.90
10702;DHT22;5402;50.004;8.246;2024-01-27T02:45:11;2.60;99.90
10702;DHT22;5402;50.004;8.246;2024-01-27T02:47:37;2.50;99.90
10702;DHT22;5402;50.004;8.246;2024-01-27T02:50:05;2.60;99.90
10702;DHT22;5402;50.004;8.246;2024-01-27T02:52:32;2.60;99.90
10702;DHT22;5402;50.004;8.246;2024-01-27T02:54:59;2.50;99.90
10702;DHT22;5402;50.004;8.246;2024-01-27T02:57:26;2.50;99.90
10702;DHT22;5402;50.004;8.246;2024-01-27T02:59:54;2.50;99.90
10702;DHT22;5402;50.004;8.246;2024-01-27T03:02:20;2.50;99.90
10702;DHT22;5402;50.004;8.246;2024-01-27T03:04:47;2.40;99.90
10702;DHT22;5402;50.004;8.246;2024-01-27T03:07:14;2.30;99.90
10702;DHT22;5402;50.004;8.246;2024-01-27T03:09:40;2.30;99.90
10702;DHT22;5402;50.004;8.246;2024-01-27T03:12:08;2.20;99.90
10702;DHT22;5402;50.004;8.246;2024-01-27T03:14:34;2.20;99.90
10702;DHT22;5402;50.004;8.246;2024-01-27T03:17:03;2.20;99.90
10702;DHT22;5402;50.004;8.246;2024-01-27T03:19:29;2.20;99.90
10702;DHT22;5402;50.004;8.246;2024-01-27T03:21:56;2.20;99.90
10702;DHT22;5402;50.004;8.246;2024-01-27T03:24:23;2.30;99.90
10702;DHT22;5402;50.004;8.246;2024-01-27T03:26:50;2.30;99.90
10702;DHT22;5402;50.004;8.246;2024-01-27T03:29:16;2.30;99.90
10702;DHT22;5402;50.004;8.246;2024-01-27T03:31:43;2.30;99.90
10702;DHT22;5402;50.004;8.246;2024-01-27T03:34:11;2.30;99.90
10702;DHT22;5402;50.004;8.246;2024-01-27T03:36:38;2.30;99.90
10702;DHT22;5402;50.004;8.246;2024-01-27T03:39:05;2.30;99.90
10702;DHT22;5402;50.004;8.246;2024-01-27T03:41:33;2.30;99.90
10702;DHT22;5402;50.004;8.246;2024-01-27T03:44:00;2.30;99.90
10702;DHT22;5402;50.004;8.246;2024-01-27T03:46:26;2.20;99.90
10702;DHT22;5402;50.004;8.246;2024-01-27T03:48:53;2.20;99.90
10702;DHT22;5402;50.004;8.246;2024-01-27T03:51:21;2.30;99.90
10702;DHT22;5402;50.004;8.246;2024-01-27T03:53:48;2.20;99.90
10702;DHT22;5402;50.004;8.246;2024-01-27T03:56:15;2.10;99.90
10702;DHT22;5402;50.004;8.246;2024-01-27T03:58:42;2.00;99.90
10702;DHT22;5402;50.004;8.246;2024-01-27T04:01:08;2.10;99.90
10702;DHT22;5402;50.004;8.246;2024-01-27T04:03:35;2.10;99.90
10702;DHT22;5402;50.004;8.246;2024-01-27T04:06:02;2.00;99.90
10702;DHT22;5402;50.004;8.246;2024-01-27T04:08:31;2.00;99.90
10702;DHT22;5402;50.004;8.246;2024-01-27T04:10:57;2.00;99.90
10702;DHT22;5402;50.004;8.246;2024-01-27T04:13:24;2.10;99.90
10702;DHT22;5402;50.004;8.246;2024-01-27T04:15:51;2.10;99.90
10702;DHT22;5402;50.004;8.246;2024-01-27T04:18:19;2.10;99.90
10702;DHT22;5402;50.004;8.246;2024-01-27T04:20:46;2.00;99.90
10702;DHT22;5402;50.004;8.246;2024-01-27T04:23:14;2.00;99.90
10702;DHT22;5402;50.004;8.246;2024-01-27T04:25:42;1.90;99.90
10702;DHT22;5402;50.004;8.246;2024-01-27T04:28:09;1.90;99.90
10702;DHT22;5402;50.004;8.246;2024-01-27T04:30:37;1.80;99.90
10702;DHT22;5402;50.004;8.246;2024-01-27T04:33:04;1.80;99.90
10702;DHT22;5402;50.004;8.246;2024-01-27T04:35:32;1.80;99.90
10702;DHT22;5402;50.004;8.246;2024-01-27T04:37:59;1.80;99.90
10702;DHT22;5402;50.004;8.246;2024-01-27T04:40:26;1.70;99.90
10702;DHT22;5402;50.004;8.246;2024-01-27T04:42:54;1.70;99.90
10702;DHT22;5402;50.004;8.246;2024-01-27T04:45:21;1.70;99.90
10702;DHT22;5402;50.004;8.246;2024-01-27T04:47:48;1.60;99.90
10702;DHT22;5402;50.004;8.246;2024-01-27T04:50:14;1.50;99.90
10702;DHT22;5402;50.004;8.246;2024-01-27T04:52:41;1.30;99.90
10702;DHT22;5402;50.004;8.246;2024-01-27T04:55:08;1.10;99.90
10702;DHT22;5402;50.004;8.246;2024-01-27T04:57:35;1.20;99.90
10702;DHT22;5402;50.004;8.246;2024-01-27T05:00:04;1.20;99.90
10702;DHT22;5402;50.004;8.246;2024-01-27T05:02:35;1.20;99.90
10702;DHT22;5402;50.004;8.246;2024-01-27T05:05:02;1.20;99.90
10702;DHT22;5402;50.004;8.246;2024-01-27T05:07:29;1.20;99.90
10702;DHT22;5402;50.004;8.246;2024-01-27T05:09:56;1.20;99.90
10702;DHT22;5402;50.004;8.246;2024-01-27T05:12:23;1.50;99.90
10702;DHT22;5402;50.004;8.246;2024-01-27T05:14:49;1.20;99.90
10702;DHT22;5402;50.004;8.246;2024-01-27T05:17:17;1.10;99.90
10702;DHT22;5402;50.004;8.246;2024-01-27T05:19:44;1.00;99.90
10702;DHT22;5402;50.004;8.246;2024-01-27T05:22:11;1.10;99.90
10702;DHT22;5402;50.004;8.246;2024-01-27T05:24:38;1.00;99.90
10702;DHT22;5402;50.004;8.246;2024-01-27T05:27:05;1.00;99.90
10702;DHT22;5402;50.004;8.246;2024-01-27T05:29:31;1.00;99.90
10702;DHT22;5402;50.004;8.246;2024-01-27T05:31:58;1.00;99.90
10702;DHT22;5402;50.004;8.246;2024-01-27T05:34:26;1.10;99.90
10702;DHT22;5402;50.004;8.246;2024-01-27T05:36:53;1.10;99.90
10702;DHT22;5402;50.004;8.246;2024-01-27T05:39:20;1.20;99.90
10702;DHT22;5402;50.004;8.246;2024-01-27T05:41:46;1.30;99.90
10702;DHT22;5402;50.004;8.246;2024-01-27T05:44:13;1.30;99.90
10702;DHT22;5402;50.004;8.246;2024-01-27T05:46:40;1.30;99.90
10702;DHT22;5402;50.004;8.246;2024-01-27T05:49:07;1.30;99.90
10702;DHT22;5402;50.004;8.246;2024-01-27T05:51:35;1.20;99.90
10702;DHT22;5402;50.004;8.246;2024-01-27T05:54:01;1.20;99.90
10702;DHT22;5402;50.004;8.246;2024-01-27T05:56:28;1.20;99.90
10702;DHT22;5402;50.004;8.246;2024-01-27T05:58:55;1.20;99.90
10702;DHT22;5402;50.004;8.246;2024-01-27T06:01:22;1.00;99.90
10702;DHT22;5402;50.004;8.246;2024-01-27T06:03:50;0.80;99.90
10702;DHT22;5402;50.004;8.246;2024-01-27T06:06:17;0.50;99.90
10702;DHT22;5402;50.004;8.246;2024-01-27T06:08:45;0.50;99.90
10702;DHT22;5402;50.004;8.246;2024-01-27T06:11:12;0.50;99.90
10702;DHT22;5402;50.004;8.246;2024-01-27T06:13:39;0.60;99.90
10702;DHT22;5402;50.004;8.246;2024-01-27T06:16:07;0.60;99.90
10702;DHT22;5402;50.004;8.246;2024-01-27T06:18:35;0.70;99.90
10702;DHT22;5402;50.004;8.246;2024-01-27T06:21:02;0.70;99.90
10702;DHT22;5402;50.004;8.246;2024-01-27T06:23:29;0.70;99.90
10702;DHT22;5402;50.004;8.246;2024-01-27T06:25:57;0.60;99.90
10702;DHT22;5402;50.004;8.246;2024-01-27T06:28:24;0.50;99.90
10702;DHT22;5402;50.004;8.246;2024-01-27T06:30:51;0.60;99.90
10702;DHT22;5402;50.004;8.246;2024-01-27T06:33:18;0.90;99.90
10702;DHT22;5402;50.004;8.246;2024-01-27T06:35:45;0.50;99.90
10702;DHT22;5402;50.004;8.246;2024-01-27T06:38:12;0.30;99.90
10702;DHT22;5402;50.004;8.246;2024-01-27T06:40:40;0.10;99.90
10702;DHT22;5402;50.004;8.246;2024-01-27T06:43:09;0.00;99.90
10702;DHT22;5402;50.004;8.246;2024-01-27T06:45:35;0.10;99.90
10702;DHT22;5402;50.004;8.246;2024-01-27T06:48:02;0.20;99.90
10702;DHT22;5402;50.004;8.246;2024-01-27T06:50:29;0.20;99.90
10702;DHT22;5402;50.004;8.246;2024-01-27T06:52:56;0.20;99.90
10702;DHT22;5402;50.004;8.246;2024-01-27T06:55:23;0.20;99.90
10702;DHT22;5402;50.004;8.246;2024-01-27T06:57:49;0.30;99.90
10702;DHT22;5402;50.004;8.246;2024-01-27T07:00:18;0.40;99.90
10702;DHT22;5402;50.004;8.246;2024-01-27T07:02:45;0.50;99.90
10702;DHT22;5402;50.004;8.246;2024-01-27T07:05:12;0.60;99.90
10702;DHT22;5402;50.004;8.246;2024-01-27T07:07:40;0.60;99.90
10702;DHT22;5402;50.004;8.246;2024-01-27T07:10:08;0.60;99.90
10702;DHT22;5402;50.004;8.246;2024-01-27T07:12:34;0.60;99.90
10702;DHT22;5402;50.004;8.246;2024-01-27T07:15:02;0.20;99.90
10702;DHT22;5402;50.004;8.246;2024-01-27T07:17:30;0.00;99.90
10702;DHT22;5402;50.004;8.246;2024-01-27T07:19:57;-0.20;99.90
10702;DHT22;5402;50.004;8.246;2024-01-27T07:22:23;-0.10;99.90
10702;DHT22;5402;50.004;8.246;2024-01-27T07:24:50;-0.10;99.90
10702;DHT22;5402;50.004;8.246;2024-01-27T07:27:17;-0.10;99.90
10702;DHT22;5402;50.004;8.246;2024-01-27T07:29:45;-0.10;99.90
10702;DHT22;5402;50.004;8.246;2024-01-27T07:32:12;-0.10;99.90
10702;DHT22;5402;50.004;8.246;2024-01-27T07:34:42;-0.10;99.90
10702;DHT22;5402;50.004;8.246;2024-01-27T07:37:09;-0.10;99.90
10702;DHT22;5402;50.004;8.246;2024-01-27T07:39:36;-0.10;99.90
10702;DHT22;5402;50.004;8.246;2024-01-27T07:42:03;0.00;99.90
10702;DHT22;5402;50.004;8.246;2024-01-27T07:44:29;0.00;99.90
10702;DHT22;5402;50.004;8.246;2024-01-27T07:46:56;0.00;99.90
10702;DHT22;5402;50.004;8.246;2024-01-27T07:49:23;0.10;99.90
10702;DHT22;5402;50.004;8.246;2024-01-27T07:51:51;0.20;99.90
10702;DHT22;5402;50.004;8.246;2024-01-27T07:54:18;0.30;99.90
10702;DHT22;5402;50.004;8.246;2024-01-27T07:56:44;0.40;99.90
10702;DHT22;5402;50.004;8.246;2024-01-27T07:59:11;0.40;99.90
10702;DHT22;5402;50.004;8.246;2024-01-27T08:01:40;0.50;99.90
10702;DHT22;5402;50.004;8.246;2024-01-27T08:04:07;0.60;99.90
10702;DHT22;5402;50.004;8.246;2024-01-27T08:06:44;0.80;99.90
10702;DHT22;5402;50.004;8.246;2024-01-27T08:09:13;0.90;99.90
10702;DHT22;5402;50.004;8.246;2024-01-27T08:11:40;0.90;99.90
10702;DHT22;5402;50.004;8.246;2024-01-27T08:14:06;1.00;99.90
10702;DHT22;5402;50.004;8.246;2024-01-27T08:16:33;1.10;99.90
10702;DHT22;5402;50.004;8.246;2024-01-27T08:19:00;1.20;99.90
10702;DHT22;5402;50.004;8.246;2024-01-27T08:21:27;1.30;99.90
10702;DHT22;5402;50.004;8.246;2024-01-27T08:23:54;1.40;99.90
10702;DHT22;5402;50.004;8.246;2024-01-27T08:26:22;1.40;99.90
10702;DHT22;5402;50.004;8.246;2024-01-27T08:28:49;1.50;99.90
10702;DHT22;5402;50.004;8.246;2024-01-27T08:31:16;1.50;99.90
10702;DHT22;5402;50.004;8.246;2024-01-27T08:33:42;1.60;99.90
10702;DHT22;5402;50.004;8.246;2024-01-27T08:36:13;1.60;99.90
10702;DHT22;5402;50.004;8.246;2024-01-27T08:38:39;1.70;99.90
10702;DHT22;5402;50.004;8.246;2024-01-27T08:41:06;1.70;99.90
10702;DHT22;5402;50.004;8.246;2024-01-27T08:43:34;1.90;99.90
10702;DHT22;5402;50.004;8.246;2024-01-27T08:46:01;1.90;99.90
10702;DHT22;5402;50.004;8.246;2024-01-27T08:48:28;2.10;99.90
10702;DHT22;5402;50.004;8.246;2024-01-27T08:50:54;2.20;99.90
10702;DHT22;5402;50.004;8.246;2024-01-27T08:53:21;2.20;99.90
10702;DHT22;5402;50.004;8.246;2024-01-27T08:55:48;2.30;99.90
10702;DHT22;5402;50.004;8.246;2024-01-27T08:58:15;2.40;99.90
10702;DHT22;5402;50.004;8.246;2024-01-27T09:00:43;2.50;99.90
10702;DHT22;5402;50.004;8.246;2024-01-27T09:03:09;2.60;99.90
10702;DHT22;5402;50.004;8.246;2024-01-27T09:05:37;2.70;99.90
10702;DHT22;5402;50.004;8.246;2024-01-27T09:08:06;2.80;99.90
10702;DHT22;5402;50.004;8.246;2024-01-27T09:10:33;2.90;99.90
10702;DHT22;5402;50.004;8.246;2024-01-27T09:13:00;3.10;99.90
10702;DHT22;5402;50.004;8.246;2024-01-27T09:15:26;3.10;99.90
10702;DHT22;5402;50.004;8.246;2024-01-27T09:17:54;3.20;99.90
10702;DHT22;5402;50.004;8.246;2024-01-27T09:20:22;3.40;99.90
10702;DHT22;5402;50.004;8.246;2024-01-27T09:22:49;3.50;99.90
10702;DHT22;5402;50.004;8.246;2024-01-27T09:25:16;3.60;99.90
10702;DHT22;5402;50.004;8.246;2024-01-27T09:27:42;3.60;99.90
10702;DHT22;5402;50.004;8.246;2024-01-27T09:30:10;3.80;99.90
10702;DHT22;5402;50.004;8.246;2024-01-27T09:32:39;3.90;99.90
10702;DHT22;5402;50.004;8.246;2024-01-27T09:35:10;4.10;99.90
10702;DHT22;5402;50.004;8.246;2024-01-27T09:37:39;4.10;99.90
10702;DHT22;5402;50.004;8.246;2024-01-27T09:40:07;4.20;99.90
10702;DHT22;5402;50.004;8.246;2024-01-27T09:42:34;4.30;99.90
10702;DHT22;5402;50.004;8.246;2024-01-27T09:45:02;4.30;99.90
10702;DHT22;5402;50.004;8.246;2024-01-27T09:47:29;4.30;99.90
10702;DHT22;5402;50.004;8.246;2024-01-27T09:49:56;4.40;99.90
10702;DHT22;5402;50.004;8.246;2024-01-27T09:52:25;4.50;99.90
10702;DHT22;5402;50.004;8.246;2024-01-27T09:54:52;4.70;99.90
10702;DHT22;5402;50.004;8.246;2024-01-27T09:57:19;4.70;99.90
10702;DHT22;5402;50.004;8.246;2024-01-27T09:59:47;4.80;99.90
10702;DHT22;5402;50.004;8.246;2024-01-27T10:02:15;4.80;99.90
10702;DHT22;5402;50.004;8.246;2024-01-27T10:04:42;4.90;99.90
10702;DHT22;5402;50.004;8.246;2024-01-27T10:07:10;5.00;99.90
10702;DHT22;5402;50.004;8.246;2024-01-27T10:09:38;5.00;99.90
10702;DHT22;5402;50.004;8.246;2024-01-27T10:12:08;5.00;99.90
10702;DHT22;5402;50.004;8.246;2024-01-27T10:14:38;5.10;99.90
10702;DHT22;5402;50.004;8.246;2024-01-27T10:17:05;5.10;99.90
10702;DHT22;5402;50.004;8.246;2024-01-27T10:19:35;5.10;99.90
10702;DHT22;5402;50.004;8.246;2024-01-27T10:22:02;5.10;99.90
10702;DHT22;5402;50.004;8.246;2024-01-27T10:24:28;5.20;99.90
10702;DHT22;5402;50.004;8.246;2024-01-27T10:27:00;5.20;99.90
10702;DHT22;5402;50.004;8.246;2024-01-27T10:29:27;5.30;99.90
10702;DHT22;5402;50.004;8.246;2024-01-27T10:31:54;5.40;99.90
10702;DHT22;5402;50.004;8.246;2024-01-27T10:34:21;5.50;99.90
10702;DHT22;5402;50.004;8.246;2024-01-27T10:36:48;5.60;99.90
10702;DHT22;5402;50.004;8.246;2024-01-27T10:39:16;5.50;99.90
10702;DHT22;5402;50.004;8.246;2024-01-27T10:41:45;5.60;99.90
10702;DHT22;5402;50.004;8.246;2024-01-27T10:44:15;5.60;99.90
10702;DHT22;5402;50.004;8.246;2024-01-27T10:46:43;5.70;99.90
10702;DHT22;5402;50.004;8.246;2024-01-27T10:49:12;5.70;99.90
10702;DHT22;5402;50.004;8.246;2024-01-27T10:51:43;5.80;99.90
10702;DHT22;5402;50.004;8.246;2024-01-27T10:54:14;5.80;99.90
10702;DHT22;5402;50.004;8.246;2024-01-27T10:56:42;5.80;99.90
10702;DHT22;5402;50.004;8.246;2024-01-27T10:59:10;5.90;99.90
10702;DHT22;5402;50.004;8.246;2024-01-27T11:01:41;6.00;99.90
10702;DHT22;5402;50.004;8.246;2024-01-27T11:04:08;5.90;99.90
10702;DHT22;5402;50.004;8.246;2024-01-27T11:06:39;6.00;99.90
10702;DHT22;5402;50.004;8.246;2024-01-27T11:09:08;6.00;99.90
10702;DHT22;5402;50.004;8.246;2024-01-27T11:11:35;6.10;99.90
10702;DHT22;5402;50.004;8.246;2024-01-27T11:14:02;6.20;99.90
10702;DHT22;5402;50.004;8.246;2024-01-27T11:16:29;6.30;99.90
10702;DHT22;5402;50.004;8.246;2024-01-27T11:18:57;6.60;99.90
10702;DHT22;5402;50.004;8.246;2024-01-27T11:21:24;6.90;99.90
10702;DHT22;5402;50.004;8.246;2024-01-27T11:23:51;6.80;99.90
10702;DHT22;5402;50.004;8.246;2024-01-27T11:26:20;6.80;99.90
10702;DHT22;5402;50.004;8.246;2024-01-27T11:28:48;6.70;99.90
10702;DHT22;5402;50.004;8.246;2024-01-27T11:31:17;6.70;99.90
10702;DHT22;5402;50.004;8.246;2024-01-27T11:33:44;6.80;99.90
10702;DHT22;5402;50.004;8.246;2024-01-27T11:36:20;6.80;99.90
10702;DHT22;5402;50.004;8.246;2024-01-27T11:38:48;7.00;99.90
10702;DHT22;5402;50.004;8.246;2024-01-27T11:41:24;7.10;99.90
10702;DHT22;5402;50.004;8.246;2024-01-27T11:43:52;7.10;99.90
10702;DHT22;5402;50.004;8.246;2024-01-27T11:46:19;7.10;99.90
10702;DHT22;5402;50.004;8.246;2024-01-27T11:48:46;6.90;99.90
10702;DHT22;5402;50.004;8.246;2024-01-27T11:51:13;6.90;99.90
10702;DHT22;5402;50.004;8.246;2024-01-27T11:53:41;6.80;99.90
10702;DHT22;5402;50.004;8.246;2024-01-27T11:56:10;6.70;99.90
10702;DHT22;5402;50.004;8.246;2024-01-27T11:58:37;6.70;99.90
10702;DHT22;5402;50.004;8.246;2024-01-27T12:01:04;6.60;99.90
10702;DHT22;5402;50.004;8.246;2024-01-27T12:03:30;6.60;99.90
10702;DHT22;5402;50.004;8.246;2024-01-27T12:05:58;6.60;99.90
10702;DHT22;5402;50.004;8.246;2024-01-27T12:08:25;6.60;99.90
10702;DHT22;5402;50.004;8.246;2024-01-27T12:10:54;6.70;99.90
10702;DHT22;5402;50.004;8.246;2024-01-27T12:13:22;7.00;99.90
10702;DHT22;5402;50.004;8.246;2024-01-27T12:15:48;7.10;99.90
10702;DHT22;5402;50.004;8.246;2024-01-27T12:18:15;7.10;99.90
10702;DHT22;5402;50.004;8.246;2024-01-27T12:20:44;7.10;99.90
10702;DHT22;5402;50.004;8.246;2024-01-27T12:23:11;7.00;99.90
10702;DHT22;5402;50.004;8.246;2024-01-27T12:25:38;6.90;99.90
10702;DHT22;5402;50.004;8.246;2024-01-27T12:28:08;6.90;99.90
10702;DHT22;5402;50.004;8.246;2024-01-27T12:30:36;6.90;99.90
10702;DHT22;5402;50.004;8.246;2024-01-27T12:33:09;7.00;99.90
10702;DHT22;5402;50.004;8.246;2024-01-27T12:35:38;7.10;99.90
10702;DHT22;5402;50.004;8.246;2024-01-27T12:38:05;7.30;99.90
10702;DHT22;5402;50.004;8.246;2024-01-27T12:40:32;7.20;99.90
10702;DHT22;5402;50.004;8.246;2024-01-27T12:42:59;7.10;99.90
10702;DHT22;5402;50.004;8.246;2024-01-27T12:45:27;7.10;99.90
10702;DHT22;5402;50.004;8.246;2024-01-27T12:47:54;7.00;99.90
10702;DHT22;5402;50.004;8.246;2024-01-27T12:50:21;7.10;99.90
10702;DHT22;5402;50.004;8.246;2024-01-27T12:52:48;7.10;99.90
10702;DHT22;5402;50.004;8.246;2024-01-27T12:55:15;7.10;99.90
10702;DHT22;5402;50.004;8.246;2024-01-27T12:57:41;7.30;99.90
10702;DHT22;5402;50.004;8.246;2024-01-27T13:00:09;7.60;99.90
10702;DHT22;5402;50.004;8.246;2024-01-27T13:02:37;7.50;99.90
10702;DHT22;5402;50.004;8.246;2024-01-27T13:05:04;7.50;99.90
10702;DHT22;5402;50.004;8.246;2024-01-27T13:07:31;7.70;99.90
10702;DHT22;5402;50.004;8.246;2024-01-27T13:09:58;7.80;99.90
10702;DHT22;5402;50.004;8.246;2024-01-27T13:12:25;8.00;99.90
10702;DHT22;5402;50.004;8.246;2024-01-27T13:14:52;8.00;99.90
10702;DHT22;5402;50.004;8.246;2024-01-27T13:17:20;8.00;99.90
10702;DHT22;5402;50.004;8.246;2024-01-27T13:19:48;8.00;99.90
10702;DHT22;5402;50.004;8.246;2024-01-27T13:22:16;8.00;99.90
10702;DHT22;5402;50.004;8.246;2024-01-27T13:24:43;7.90;99.90
10702;DHT22;5402;50.004;8.246;2024-01-27T13:27:10;7.90;99.90
10702;DHT22;5402;50.004;8.246;2024-01-27T13:29:37;8.00;99.90
10702;DHT22;5402;50.004;8.246;2024-01-27T13:32:04;8.00;99.90
10702;DHT22;5402;50.004;8.246;2024-01-27T13:34:31;7.90;99.90
10702;DHT22;5402;50.004;8.246;2024-01-27T13:37:00;7.80;99.90
10702;DHT22;5402;50.004;8.246;2024-01-27T13:39:29;7.80;99.90
10702;DHT22;5402;50.004;8.246;2024-01-27T13:41:56;7.70;99.90
10702;DHT22;5402;50.004;8.246;2024-01-27T13:44:22;7.60;99.90
10702;DHT22;5402;50.004;8.246;2024-01-27T13:46:49;7.60;99.90
10702;DHT22;5402;50.004;8.246;2024-01-27T13:49:16;7.60;99.90
10702;DHT22;5402;50.004;8.246;2024-01-27T13:51:42;7.70;99.90
10702;DHT22;5402;50.004;8.246;2024-01-27T13:54:11;7.60;99.90
10702;DHT22;5402;50.004;8.246;2024-01-27T13:56:38;7.80;99.90
10702;DHT22;5402;50.004;8.246;2024-01-27T13:59:04;8.30;99.90
10702;DHT22;5402;50.004;8.246;2024-01-27T14:01:32;7.70;99.90
10702;DHT22;5402;50.004;8.246;2024-01-27T14:03:58;7.60;99.90
10702;DHT22;5402;50.004;8.246;2024-01-27T14:06:25;7.60;99.90
10702;DHT22;5402;50.004;8.246;2024-01-27T14:08:52;7.60;99.90
10702;DHT22;5402;50.004;8.246;2024-01-27T14:11:20;7.60;99.90
10702;DHT22;5402;50.004;8.246;2024-01-27T14:13:48;7.50;99.90
10702;DHT22;5402;50.004;8.246;2024-01-27T14:16:15;7.40;99.90
10702;DHT22;5402;50.004;8.246;2024-01-27T14:18:42;7.50;99.90
10702;DHT22;5402;50.004;8.246;2024-01-27T14:21:09;7.50;99.90
10702;DHT22;5402;50.004;8.246;2024-01-27T14:23:36;7.40;99.90
10702;DHT22;5402;50.004;8.246;2024-01-27T14:26:04;7.40;99.90
10702;DHT22;5402;50.004;8.246;2024-01-27T14:28:34;7.30;99.90
10702;DHT22;5402;50.004;8.246;2024-01-27T14:31:01;7.30;99.90
10702;DHT22;5402;50.004;8.246;2024-01-27T14:33:28;7.30;99.90
10702;DHT22;5402;50.004;8.246;2024-01-27T14:35:54;7.30;99.90
10702;DHT22;5402;50.004;8.246;2024-01-27T14:38:21;7.20;99.90
10702;DHT22;5402;50.004;8.246;2024-01-27T14:40:48;7.10;99.90
10702;DHT22;5402;50.004;8.246;2024-01-27T14:43:14;7.10;99.90
10702;DHT22;5402;50.004;8.246;2024-01-27T14:45:46;7.00;99.90
10702;DHT22;5402;50.004;8.246;2024-01-27T14:48:13;7.10;99.90
10702;DHT22;5402;50.004;8.246;2024-01-27T14:50:40;7.10;99.90
10702;DHT22;5402;50.004;8.246;2024-01-27T14:53:06;7.10;99.90
10702;DHT22;5402;50.004;8.246;2024-01-27T14:55:33;7.00;99.90
10702;DHT22;5402;50.004;8.246;2024-01-27T14:58:00;7.00;99.90
10702;DHT22;5402;50.004;8.246;2024-01-27T15:00:29;7.00;99.90
10702;DHT22;5402;50.004;8.246;2024-01-27T15:02:57;7.00;99.90
10702;DHT22;5402;50.004;8.246;2024-01-27T15:05:25;7.00;99.90
10702;DHT22;5402;50.004;8.246;2024-01-27T15:07:52;6.90;99.90
10702;DHT22;5402;50.004;8.246;2024-01-27T15:10:19;6.90;99.90
10702;DHT22;5402;50.004;8.246;2024-01-27T15:12:47;6.80;99.90
10702;DHT22;5402;50.004;8.246;2024-01-27T15:15:14;6.80;99.90
10702;DHT22;5402;50.004;8.246;2024-01-27T15:17:41;6.80;99.90
10702;DHT22;5402;50.004;8.246;2024-01-27T15:20:10;6.80;99.90
10702;DHT22;5402;50.004;8.246;2024-01-27T15:22:37;6.80;99.90
10702;DHT22;5402;50.004;8.246;2024-01-27T15:25:05;6.80;99.90
10702;DHT22;5402;50.004;8.246;2024-01-27T15:27:33;6.80;99.90
10702;DHT22;5402;50.004;8.246;2024-01-27T15:30:00;6.80;99.90
10702;DHT22;5402;50.004;8.246;2024-01-27T15:32:27;6.80;99.90
10702;DHT22;5402;50.004;8.246;2024-01-27T15:34:54;6.70;99.90
10702;DHT22;5402;50.004;8.246;2024-01-27T15:37:22;7.10;99.90
10702;DHT22;5402;50.004;8.246;2024-01-27T15:39:49;6.60;99.90
10702;DHT22;5402;50.004;8.246;2024-01-27T15:42:17;6.50;99.90
10702;DHT22;5402;50.004;8.246;2024-01-27T15:44:44;6.50;99.90
10702;DHT22;5402;50.004;8.246;2024-01-27T15:47:11;6.40;99.90
10702;DHT22;5402;50.004;8.246;2024-01-27T15:49:40;6.40;99.90
10702;DHT22;5402;50.004;8.246;2024-01-27T15:52:07;6.40;99.90
10702;DHT22;5402;50.004;8.246;2024-01-27T15:54:35;6.30;99.90
10702;DHT22;5402;50.004;8.246;2024-01-27T15:57:04;6.20;99.90
10702;DHT22;5402;50.004;8.246;2024-01-27T15:59:31;6.20;99.90
10702;DHT22;5402;50.004;8.246;2024-01-27T16:01:58;6.10;99.90